createdAt,value
2023-05-18T00:00:13.069Z,97.40
2023-05-18T00:02:41.609Z,97.34
2023-05-18T00:05:10.619Z,96.79
2023-05-18T00:07:39.654Z,96.33
2023-05-18T00:10:08.502Z,96.47
2023-05-18T00:12:36.606Z,96.13
2023-05-18T00:15:05.067Z,96.92
2023-05-18T00:17:33.943Z,96.21
2023-05-18T00:20:02.054Z,96.74
2023-05-18T00:22:30.425Z,96.56
2023-05-18T00:24:58.351Z,96.40
2023-05-18T00:27:26.338Z,96.29
2023-05-18T00:29:54.795Z,96.39
2023-05-18T00:32:22.783Z,96.79
2023-05-18T00:34:50.840Z,97.26
2023-05-18T00:37:18.823Z,96.43
2023-05-18T00:39:46.859Z,96.79
2023-05-18T00:42:14.792Z,97.12
2023-05-18T00:44:43.017Z,96.86
2023-05-18T00:47:11.879Z,96.99
2023-05-18T00:49:40.221Z,96.94
2023-05-18T00:52:16.534Z,96.68
2023-05-18T00:54:44.525Z,96.83
2023-05-18T00:57:12.458Z,97.06
2023-05-18T00:59:41.336Z,97.32
2023-05-18T01:02:12.425Z,96.93
2023-05-18T01:04:41.668Z,96.61
2023-05-18T01:07:11.404Z,95.99
2023-05-18T01:09:39.703Z,96.33
2023-05-18T01:12:21.420Z,96.61
2023-05-18T01:14:58.207Z,96.42
2023-05-18T01:17:44.311Z,97.25
2023-05-18T01:20:40.327Z,96.50
2023-05-18T01:23:41.778Z,96.99
2023-05-18T01:26:15.505Z,97.29
2023-05-18T01:28:47.145Z,97.43
2023-05-18T01:31:16.677Z,97.21
2023-05-18T01:33:45.208Z,96.98
2023-05-18T01:36:13.626Z,96.61
2023-05-18T01:38:44.385Z,96.48
2023-05-18T01:41:15.217Z,95.77
2023-05-18T01:43:52.511Z,95.79
2023-05-18T01:46:41.384Z,95.47
2023-05-18T01:49:21.178Z,95.89
2023-05-18T01:51:52.089Z,95.79
2023-05-18T01:54:21.812Z,95.18
2023-05-18T01:57:21.434Z,95.58
2023-05-18T01:59:51.445Z,96.12
2023-05-18T02:02:19.885Z,96.33
2023-05-18T02:04:48.013Z,95.87
2023-05-18T02:07:16.080Z,95.06
2023-05-18T02:09:47.024Z,96.04
2023-05-18T02:12:15.016Z,95.95
2023-05-18T02:14:42.952Z,95.81
2023-05-18T02:17:12.051Z,95.61
2023-05-18T02:19:40.241Z,96.09
2023-05-18T02:22:08.428Z,95.71
2023-05-18T02:24:37.341Z,95.37
2023-05-18T02:27:06.122Z,96.00
2023-05-18T02:29:33.985Z,95.89
2023-05-18T02:32:01.877Z,95.86
2023-05-18T02:34:33.268Z,95.59
2023-05-18T02:37:04.195Z,95.32
2023-05-18T02:39:34.130Z,95.94
2023-05-18T02:42:02.111Z,95.95
2023-05-18T02:44:30.165Z,96.41
2023-05-18T02:46:58.178Z,96.52
2023-05-18T02:49:27.054Z,96.69
2023-05-18T02:54:22.226Z,96.61
2023-05-18T02:56:50.726Z,97.55
2023-05-18T02:59:26.701Z,97.83
2023-05-18T03:01:54.761Z,97.98
2023-05-18T03:04:26.241Z,98.39
2023-05-18T03:06:57.576Z,97.64
2023-05-18T03:09:25.864Z,97.67
2023-05-18T03:11:55.461Z,97.91
2023-05-18T03:14:23.872Z,97.86
2023-05-18T03:16:54.610Z,97.52
2023-05-18T03:19:25.058Z,97.97
2023-05-18T03:21:53.747Z,98.41
2023-05-18T03:24:21.876Z,98.18
2023-05-18T03:26:54.398Z,97.81
2023-05-18T03:29:23.708Z,97.95
2023-05-18T03:31:53.499Z,97.95
2023-05-18T03:34:21.571Z,98.10
2023-05-18T03:36:52.726Z,97.97
2023-05-18T03:39:21.782Z,98.07
2023-05-18T03:41:49.884Z,97.32
2023-05-18T03:44:18.865Z,97.76
2023-05-18T03:46:47.274Z,97.00
2023-05-18T03:49:15.277Z,97.40
2023-05-18T03:51:44.403Z,97.09
2023-05-18T03:54:12.490Z,97.36
2023-05-18T03:56:41.336Z,97.80
2023-05-18T03:59:09.592Z,98.29
2023-05-18T04:01:38.441Z,98.05
2023-05-18T04:04:07.595Z,98.07
2023-05-18T04:06:35.930Z,97.83
2023-05-18T04:09:05.075Z,98.17
2023-05-18T04:11:33.175Z,98.24
2023-05-18T04:14:01.299Z,98.21
2023-05-18T04:16:29.534Z,98.12
2023-05-18T04:18:57.642Z,97.32
2023-05-18T04:21:25.693Z,96.84
2023-05-18T04:23:53.861Z,95.89
2023-05-18T04:26:22.398Z,96.11
2023-05-18T04:28:52.383Z,95.03
2023-05-18T04:31:20.830Z,95.52
2023-05-18T04:33:53.201Z,95.06
2023-05-18T04:36:21.624Z,95.55
2023-05-18T04:38:51.074Z,95.62
2023-05-18T04:41:23.106Z,96.17
2023-05-18T04:43:51.474Z,96.19
2023-05-18T04:46:22.594Z,96.43
2023-05-18T04:48:51.526Z,96.79
2023-05-18T04:51:23.022Z,96.30
2023-05-18T04:53:51.530Z,96.35
2023-05-18T04:56:23.431Z,96.61
2023-05-18T04:58:51.812Z,95.84
2023-05-18T05:01:19.833Z,96.10
2023-05-18T05:03:49.625Z,96.07
2023-05-18T05:06:17.770Z,95.47
2023-05-18T05:08:46.251Z,95.39
2023-05-18T05:11:14.344Z,94.89
2023-05-18T05:13:42.457Z,94.73
2023-05-18T05:16:11.077Z,94.44
2023-05-18T05:18:39.115Z,95.25
2023-05-18T05:21:07.196Z,94.82
2023-05-18T05:23:36.087Z,94.44
2023-05-18T05:26:04.461Z,94.79
2023-05-18T05:28:32.778Z,94.82
2023-05-18T05:31:01.150Z,95.00
2023-05-18T05:33:30.159Z,94.69
2023-05-18T05:35:58.127Z,94.23
2023-05-18T05:38:26.592Z,93.67
2023-05-18T05:40:54.720Z,93.51
2023-05-18T05:43:22.822Z,93.91
2023-05-18T05:45:51.756Z,94.12
2023-05-18T05:48:20.116Z,93.45
2023-05-18T05:50:48.568Z,93.67
2023-05-18T05:53:19.968Z,93.49
2023-05-18T05:55:49.794Z,93.56
2023-05-18T05:58:19.101Z,93.96
2023-05-18T06:00:52.546Z,93.88
2023-05-18T06:03:21.671Z,94.50
2023-05-18T06:05:50.531Z,94.94
2023-05-18T06:08:21.044Z,95.21
2023-05-18T06:10:49.203Z,95.72
2023-05-18T06:13:17.873Z,95.85
2023-05-18T06:15:51.744Z,95.50
2023-05-18T06:18:19.888Z,95.89
2023-05-18T06:20:49.385Z,96.73
2023-05-18T06:23:23.125Z,96.28
2023-05-18T06:26:03.447Z,96.14
2023-05-18T06:28:46.688Z,95.97
2023-05-18T06:31:30.321Z,95.85
2023-05-18T06:34:22.049Z,95.29
2023-05-18T06:36:50.663Z,95.28
2023-05-18T06:39:18.759Z,95.39
2023-05-18T06:41:47.102Z,94.97
2023-05-18T06:44:22.937Z,95.35
2023-05-18T06:47:07.429Z,95.72
2023-05-18T06:49:35.508Z,96.29
2023-05-18T06:52:04.366Z,96.27
2023-05-18T06:54:33.072Z,95.96
2023-05-18T06:57:01.606Z,95.68
2023-05-18T06:59:30.312Z,95.44
2023-05-18T07:01:58.508Z,95.66
2023-05-18T07:04:27.273Z,96.25
2023-05-18T07:06:56.459Z,96.01
2023-05-18T07:09:25.823Z,95.43
2023-05-18T07:11:54.049Z,94.93
2023-05-18T07:14:22.039Z,95.44
2023-05-18T07:16:50.065Z,95.47
2023-05-18T07:19:21.433Z,95.19
2023-05-18T07:21:49.643Z,94.10
2023-05-18T07:24:17.668Z,94.25
2023-05-18T07:26:45.790Z,94.32
2023-05-18T07:29:13.772Z,94.04
2023-05-18T07:31:42.225Z,94.27
2023-05-18T07:34:10.361Z,94.31
2023-05-18T07:36:38.591Z,94.77
2023-05-18T07:39:06.838Z,95.05
2023-05-18T07:41:35.140Z,94.92
2023-05-18T07:44:03.088Z,93.56
2023-05-18T07:46:31.695Z,94.37
2023-05-18T07:49:00.848Z,93.43
2023-05-18T07:51:29.983Z,94.04
2023-05-18T07:53:58.396Z,94.74
2023-05-18T07:56:26.431Z,94.84
2023-05-18T07:58:54.617Z,94.75
2023-05-18T08:01:27.455Z,94.75
2023-05-18T08:03:55.481Z,94.99
2023-05-18T08:06:24.375Z,96.07
2023-05-18T08:08:52.453Z,95.62
2023-05-18T08:11:22.142Z,94.22
2023-05-18T08:13:50.616Z,95.39
2023-05-18T08:16:18.658Z,95.11
2023-05-18T08:18:46.730Z,95.75
2023-05-18T08:21:14.905Z,96.26
2023-05-18T08:23:42.958Z,96.27
2023-05-18T08:26:14.170Z,96.00
2023-05-18T08:28:42.724Z,96.59
2023-05-18T08:31:12.685Z,96.79
2023-05-18T08:33:40.957Z,96.63
2023-05-18T08:36:09.272Z,97.67
2023-05-18T08:38:37.299Z,96.89
2023-05-18T08:41:21.512Z,96.57
2023-05-18T08:44:21.311Z,95.64
2023-05-18T08:46:53.158Z,94.64
2023-05-18T08:49:22.363Z,95.38
2023-05-18T08:51:57.268Z,94.73
2023-05-18T08:54:25.171Z,93.84
2023-05-18T08:56:54.117Z,94.70
2023-05-18T08:59:27.870Z,94.27
2023-05-18T09:01:56.304Z,93.67
2023-05-18T09:04:24.507Z,93.65
2023-05-18T09:06:54.775Z,93.91
2023-05-18T09:09:24.474Z,93.52
2023-05-18T09:11:53.331Z,93.43
2023-05-18T09:14:25.990Z,93.44
2023-05-18T09:16:54.721Z,93.70
2023-05-18T09:19:25.018Z,93.96
2023-05-18T09:21:53.199Z,93.67
2023-05-18T09:24:24.400Z,93.67
2023-05-18T09:26:53.462Z,93.26
2023-05-18T09:29:22.510Z,92.97
2023-05-18T09:31:51.097Z,92.77
2023-05-18T09:34:19.686Z,91.44
2023-05-18T09:36:53.076Z,91.36
2023-05-18T09:39:21.230Z,91.65
2023-05-18T09:41:57.073Z,91.47
2023-05-18T09:44:37.446Z,91.18
2023-05-18T09:47:10.875Z,91.44
2023-05-18T09:49:40.898Z,91.39
2023-05-18T09:52:09.677Z,91.29
2023-05-18T09:54:38.004Z,91.37
2023-05-18T09:57:10.423Z,91.72
2023-05-18T09:59:39.480Z,91.45
2023-05-18T10:02:09.213Z,92.27
2023-05-18T10:04:42.166Z,92.17
2023-05-18T10:07:15.298Z,92.58
2023-05-18T10:09:45.531Z,92.27
2023-05-18T10:12:15.951Z,90.76
2023-05-18T10:14:45.798Z,88.70
2023-05-18T10:17:17.028Z,90.06
2023-05-18T10:19:47.105Z,92.05
2023-05-18T10:22:18.098Z,92.31
2023-05-18T10:24:50.489Z,92.04
2023-05-18T10:27:24.598Z,92.02
2023-05-18T10:29:54.855Z,89.55
2023-05-18T10:32:25.718Z,88.84
2023-05-18T10:34:55.523Z,90.07
2023-05-18T10:37:24.828Z,90.03
2023-05-18T10:39:56.256Z,91.16
2023-05-18T10:42:26.422Z,91.17
2023-05-18T10:44:55.333Z,92.50
2023-05-18T10:47:24.869Z,92.45
2023-05-18T10:49:53.982Z,93.45
2023-05-18T10:52:22.431Z,93.33
2023-05-18T10:54:50.488Z,93.40
2023-05-18T10:57:21.138Z,92.13
2023-05-18T10:59:49.123Z,92.05
2023-05-18T11:02:18.946Z,93.39
2023-05-18T11:04:53.341Z,94.30
2023-05-18T11:07:22.298Z,95.78
2023-05-18T11:09:50.522Z,94.38
2023-05-18T11:12:18.489Z,93.66
2023-05-18T11:14:51.757Z,93.24
2023-05-18T11:17:27.079Z,92.65
2023-05-18T11:20:06.947Z,92.87
2023-05-18T11:23:04.105Z,92.28
2023-05-18T11:25:34.924Z,92.04
2023-05-18T11:28:16.783Z,92.33
2023-05-18T11:30:48.556Z,89.60
2023-05-18T11:33:25.545Z,89.61
2023-05-18T11:36:04.144Z,90.21
2023-05-18T11:38:54.791Z,90.96
2023-05-18T11:41:34.973Z,91.10
2023-05-18T11:44:21.754Z,91.48
2023-05-18T11:47:00.366Z,91.82
2023-05-18T11:49:31.208Z,92.12
2023-05-18T11:52:21.367Z,92.19
2023-05-18T11:54:57.344Z,93.47
2023-05-18T11:57:27.308Z,92.46
2023-05-18T11:59:59.568Z,92.42
2023-05-18T12:02:32.270Z,91.43
2023-05-18T12:05:04.881Z,91.02
2023-05-18T12:07:34.096Z,89.95
2023-05-18T12:10:04.586Z,88.87
2023-05-18T12:12:34.612Z,88.42
2023-05-18T12:15:07.775Z,88.73
2023-05-18T12:17:45.858Z,88.43
2023-05-18T12:20:15.231Z,89.20
2023-05-18T12:22:52.933Z,89.38
2023-05-18T12:25:41.782Z,89.25
2023-05-18T12:28:09.961Z,88.97
2023-05-18T12:30:39.884Z,89.31
2023-05-18T12:33:08.213Z,89.12
2023-05-18T12:35:36.611Z,89.21
2023-05-18T12:38:04.639Z,89.23
2023-05-18T12:40:44.602Z,87.74
2023-05-18T12:43:13.654Z,88.84
2023-05-18T12:45:45.325Z,89.80
2023-05-18T12:48:15.420Z,90.58
2023-05-18T12:50:48.179Z,90.31
2023-05-18T12:53:17.778Z,89.89
2023-05-18T12:55:46.279Z,91.01
2023-05-18T12:58:19.488Z,91.20
2023-05-18T13:00:49.263Z,91.47
2023-05-18T13:03:20.740Z,91.38
2023-05-18T13:06:05.119Z,91.57
2023-05-18T13:08:35.746Z,91.89
2023-05-18T13:25:02.730Z,93.02
2023-05-18T13:54:51.758Z,91.58
2023-05-18T14:03:00.324Z,92.60
2023-05-18T14:13:41.308Z,94.22
2023-05-18T14:51:18.643Z,95.19
2023-05-18T15:01:54.104Z,89.57
2023-05-18T15:07:05.733Z,89.75
2023-05-18T15:09:34.315Z,90.44
2023-05-18T15:25:52.208Z,89.13
2023-05-18T15:36:27.673Z,89.35
2023-05-18T15:57:49.525Z,93.70
2023-05-18T16:00:18.962Z,93.40
2023-05-18T16:05:31.883Z,92.87
2023-05-18T16:43:21.451Z,94.04
2023-05-18T16:48:36.392Z,95.30
2023-05-18T16:51:15.428Z,95.67
2023-05-18T17:07:18.478Z,96.03
2023-05-18T17:23:21.674Z,95.94
2023-05-18T17:42:09.357Z,97.00
2023-05-18T17:58:12.877Z,96.97
2023-05-18T18:17:05.374Z,96.84
2023-05-18T18:19:34.645Z,96.71
2023-05-18T18:22:03.678Z,96.29
2023-05-18T18:24:32.722Z,97.40
2023-05-18T18:27:03.260Z,96.87
2023-05-18T18:29:31.890Z,96.90
2023-05-18T18:32:00.519Z,96.83
2023-05-18T18:34:29.578Z,96.96
2023-05-18T18:36:59.206Z,96.68
2023-05-18T18:39:28.608Z,96.57
2023-05-18T18:41:57.579Z,96.71
2023-05-18T18:44:26.323Z,96.54
2023-05-18T18:46:55.078Z,96.04
2023-05-18T18:49:23.480Z,96.17
2023-05-18T18:51:53.481Z,95.54
2023-05-18T18:54:24.302Z,95.97
2023-05-18T18:56:53.186Z,95.77
2023-05-18T18:59:21.720Z,95.67
2023-05-18T19:01:50.348Z,95.18
2023-05-18T19:04:20.854Z,95.44
2023-05-18T19:06:49.518Z,94.90
2023-05-18T19:09:18.183Z,95.13
2023-05-18T19:11:46.818Z,95.10
2023-05-18T19:14:15.438Z,95.41
2023-05-18T19:16:44.185Z,95.78
2023-05-18T19:19:12.831Z,97.21
2023-05-18T19:21:41.376Z,96.76
2023-05-18T19:24:09.881Z,95.77
2023-05-18T19:26:38.577Z,96.43
2023-05-18T19:29:07.268Z,96.80
2023-05-18T19:31:37.463Z,96.20
2023-05-18T19:34:06.106Z,95.99
2023-05-18T19:36:34.647Z,96.10
2023-05-18T19:39:05.880Z,96.13
2023-05-18T19:41:34.452Z,97.12
2023-05-18T19:44:03.381Z,96.53
2023-05-18T19:46:31.661Z,96.65
2023-05-18T19:49:00.164Z,96.96
2023-05-18T19:51:29.071Z,96.31
2023-05-18T19:53:57.527Z,95.99
2023-05-18T19:56:26.225Z,96.07
2023-05-18T19:58:54.962Z,96.43
2023-05-18T20:01:25.089Z,96.46
2023-05-18T20:03:53.683Z,96.90
2023-05-18T20:06:21.943Z,96.67
2023-05-18T20:08:50.178Z,96.97
2023-05-18T20:11:18.994Z,96.67
2023-05-18T20:13:47.062Z,96.65
2023-05-18T20:16:15.917Z,96.66
2023-05-18T20:18:46.131Z,96.13
2023-05-18T20:21:14.306Z,95.80
2023-05-18T20:23:42.704Z,95.85
2023-05-18T20:26:11.503Z,95.56
2023-05-18T20:28:39.952Z,96.03
2023-05-18T20:31:08.107Z,95.94
2023-05-18T20:33:37.190Z,95.96
2023-05-18T20:36:07.101Z,95.69
2023-05-18T20:38:36.029Z,95.78
2023-05-18T20:41:04.287Z,95.46
2023-05-18T20:43:32.601Z,95.93
2023-05-18T20:46:00.729Z,95.90
2023-05-18T20:48:29.448Z,95.62
2023-05-18T20:50:57.884Z,95.61
2023-05-18T20:53:26.605Z,95.93
2023-05-18T20:55:54.928Z,95.88
2023-05-18T20:58:23.318Z,96.29
2023-05-18T21:00:52.364Z,96.45
2023-05-18T21:03:20.539Z,96.42
2023-05-18T21:05:52.152Z,96.49
2023-05-18T21:08:20.326Z,96.14
2023-05-18T21:10:48.167Z,96.50
2023-05-18T21:13:16.216Z,95.76
2023-05-18T21:15:44.840Z,96.14
2023-05-18T21:18:14.465Z,96.70
2023-05-18T21:20:44.760Z,96.93
2023-05-18T21:23:13.032Z,96.88
2023-05-18T21:25:41.603Z,97.00
2023-05-18T21:28:10.191Z,97.67
2023-05-18T21:30:38.701Z,97.02
2023-05-18T21:33:07.012Z,96.34
2023-05-18T21:35:35.732Z,96.02
2023-05-18T21:38:03.971Z,95.93
2023-05-18T21:40:32.417Z,96.58
2023-05-18T21:43:01.056Z,97.13
2023-05-18T21:45:30.320Z,97.22
2023-05-18T21:47:58.509Z,96.45
2023-05-18T21:50:28.030Z,96.01
2023-05-18T21:52:56.749Z,96.28
2023-05-18T21:55:27.246Z,96.13
2023-05-18T21:57:55.615Z,96.26
2023-05-18T22:00:25.269Z,96.20
2023-05-18T22:02:53.305Z,96.04
2023-05-18T22:05:22.101Z,96.52
2023-05-18T22:07:50.402Z,96.75
2023-05-18T22:10:18.536Z,96.96
2023-05-18T22:12:46.933Z,95.97
2023-05-18T22:15:15.290Z,96.70
2023-05-18T22:17:43.403Z,96.22
2023-05-18T22:20:12.127Z,96.49
2023-05-18T22:22:41.952Z,96.67
2023-05-18T22:25:10.041Z,97.11
2023-05-18T22:27:39.092Z,98.20
2023-05-18T22:30:09.216Z,97.39
2023-05-18T22:32:47.958Z,96.93
2023-05-18T22:35:16.737Z,97.27
2023-05-18T22:37:44.599Z,97.06
2023-05-18T22:40:13.071Z,97.36
2023-05-18T22:42:41.247Z,97.44
2023-05-18T22:45:10.201Z,98.44
2023-05-18T22:47:39.568Z,99.45
2023-05-18T22:50:08.404Z,99.51
2023-05-18T22:52:36.929Z,98.38
2023-05-18T22:55:08.949Z,98.74
2023-05-18T22:57:37.064Z,99.23
2023-05-18T23:00:06.477Z,99.23
2023-05-18T23:02:34.767Z,98.66
2023-05-18T23:05:03.310Z,98.64
2023-05-18T23:07:32.633Z,98.80
2023-05-18T23:10:00.710Z,98.20
2023-05-18T23:12:30.583Z,98.24
2023-05-18T23:15:02.776Z,98.31
2023-05-18T23:17:39.077Z,97.67
2023-05-18T23:20:07.865Z,98.08
2023-05-18T23:22:35.940Z,97.75
2023-05-18T23:25:08.836Z,97.35
2023-05-18T23:27:37.114Z,97.35
2023-05-18T23:30:05.648Z,97.34
2023-05-18T23:32:35.579Z,96.53
2023-05-18T23:35:05.303Z,96.91
2023-05-18T23:37:33.608Z,97.15
2023-05-18T23:40:02.957Z,96.95
2023-05-18T23:42:31.933Z,97.93
2023-05-18T23:45:00.244Z,97.87
2023-05-18T23:47:28.413Z,97.75
2023-05-18T23:49:57.300Z,97.03
2023-05-18T23:52:28.265Z,97.15
2023-05-18T23:54:58.826Z,97.45
2023-05-18T23:57:27.013Z,97.22
2023-05-18T23:59:56.547Z,97.00
